sensor_id;sensor_type;location;lat;lon;timestamp;P1;durP1;ratioP1;P2;durP2;ratioP2
4603;SDS011;2314;48.272;11.562;2022-12-07T00:01:47;127.60;;;8.70;;
4603;SDS011;2314;48.272;11.562;2022-12-07T00:04:16;131.17;;;10.03;;
4603;SDS011;2314;48.272;11.562;2022-12-07T00:06:45;130.10;;;9.37;;
4603;SDS011;2314;48.272;11.562;2022-12-07T00:09:14;127.50;;;8.33;;
4603;SDS011;2314;48.272;11.562;2022-12-07T00:11:43;127.17;;;8.57;;
4603;SDS011;2314;48.272;11.562;2022-12-07T00:14:13;129.30;;;9.27;;
4603;SDS011;2314;48.272;11.562;2022-12-07T00:16:42;131.03;;;10.00;;
4603;SDS011;2314;48.272;11.562;2022-12-07T00:19:11;128.90;;;9.30;;
4603;SDS011;2314;48.272;11.562;2022-12-07T00:21:41;129.90;;;9.13;;
4603;SDS011;2314;48.272;11.562;2022-12-07T00:24:09;130.77;;;9.10;;
4603;SDS011;2314;48.272;11.562;2022-12-07T00:26:38;128.13;;;8.53;;
4603;SDS011;2314;48.272;11.562;2022-12-07T00:29:07;132.10;;;10.07;;
4603;SDS011;2314;48.272;11.562;2022-12-07T00:31:41;131.00;;;9.77;;
4603;SDS011;2314;48.272;11.562;2022-12-07T00:34:11;129.37;;;9.70;;
4603;SDS011;2314;48.272;11.562;2022-12-07T00:36:42;131.03;;;9.40;;
4603;SDS011;2314;48.272;11.562;2022-12-07T00:39:09;130.60;;;9.27;;
4603;SDS011;2314;48.272;11.562;2022-12-07T00:41:36;131.20;;;10.37;;
4603;SDS011;2314;48.272;11.562;2022-12-07T00:44:04;132.50;;;11.30;;
4603;SDS011;2314;48.272;11.562;2022-12-07T00:46:31;132.47;;;10.13;;
4603;SDS011;2314;48.272;11.562;2022-12-07T00:48:58;128.50;;;9.20;;
4603;SDS011;2314;48.272;11.562;2022-12-07T00:51:25;135.83;;;9.30;;
4603;SDS011;2314;48.272;11.562;2022-12-07T00:53:54;131.87;;;10.63;;
4603;SDS011;2314;48.272;11.562;2022-12-07T00:56:21;138.67;;;10.50;;
4603;SDS011;2314;48.272;11.562;2022-12-07T00:58:51;130.00;;;10.20;;
4603;SDS011;2314;48.272;11.562;2022-12-07T01:01:20;130.60;;;10.00;;
4603;SDS011;2314;48.272;11.562;2022-12-07T01:03:48;129.27;;;9.10;;
4603;SDS011;2314;48.272;11.562;2022-12-07T01:06:16;132.77;;;10.17;;
4603;SDS011;2314;48.272;11.562;2022-12-07T01:08:47;131.20;;;9.90;;
4603;SDS011;2314;48.272;11.562;2022-12-07T01:11:18;133.10;;;10.13;;
4603;SDS011;2314;48.272;11.562;2022-12-07T01:13:49;132.27;;;10.57;;
4603;SDS011;2314;48.272;11.562;2022-12-07T01:16:17;131.97;;;10.40;;
4603;SDS011;2314;48.272;11.562;2022-12-07T01:18:46;132.90;;;11.53;;
4603;SDS011;2314;48.272;11.562;2022-12-07T01:21:16;133.20;;;11.00;;
4603;SDS011;2314;48.272;11.562;2022-12-07T01:23:45;132.27;;;10.90;;
4603;SDS011;2314;48.272;11.562;2022-12-07T01:26:14;131.60;;;10.20;;
4603;SDS011;2314;48.272;11.562;2022-12-07T01:28:45;135.30;;;11.03;;
4603;SDS011;2314;48.272;11.562;2022-12-07T01:31:13;129.80;;;9.20;;
4603;SDS011;2314;48.272;11.562;2022-12-07T01:33:42;134.07;;;10.90;;
4603;SDS011;2314;48.272;11.562;2022-12-07T01:36:14;135.13;;;10.80;;
4603;SDS011;2314;48.272;11.562;2022-12-07T01:38:43;133.70;;;11.30;;
4603;SDS011;2314;48.272;11.562;2022-12-07T01:41:12;134.33;;;10.97;;
4603;SDS011;2314;48.272;11.562;2022-12-07T01:46:42;129.87;;;9.67;;
4603;SDS011;2314;48.272;11.562;2022-12-07T01:49:11;134.93;;;10.97;;
4603;SDS011;2314;48.272;11.562;2022-12-07T01:51:45;134.73;;;10.73;;
4603;SDS011;2314;48.272;11.562;2022-12-07T01:54:14;132.47;;;9.33;;
4603;SDS011;2314;48.272;11.562;2022-12-07T01:56:42;132.07;;;10.70;;
4603;SDS011;2314;48.272;11.562;2022-12-07T01:59:17;134.63;;;11.63;;
4603;SDS011;2314;48.272;11.562;2022-12-07T02:01:47;135.37;;;10.30;;
4603;SDS011;2314;48.272;11.562;2022-12-07T02:04:16;133.37;;;9.67;;
4603;SDS011;2314;48.272;11.562;2022-12-07T02:06:44;133.27;;;11.13;;
4603;SDS011;2314;48.272;11.562;2022-12-07T02:09:12;133.47;;;10.87;;
4603;SDS011;2314;48.272;11.562;2022-12-07T02:11:39;133.00;;;10.70;;
4603;SDS011;2314;48.272;11.562;2022-12-07T02:14:07;135.37;;;11.23;;
4603;SDS011;2314;48.272;11.562;2022-12-07T02:16:37;137.73;;;11.80;;
4603;SDS011;2314;48.272;11.562;2022-12-07T02:19:30;134.77;;;11.27;;
4603;SDS011;2314;48.272;11.562;2022-12-07T02:22:36;136.47;;;12.00;;
4603;SDS011;2314;48.272;11.562;2022-12-07T02:25:50;133.43;;;10.87;;
4603;SDS011;2314;48.272;11.562;2022-12-07T02:28:29;131.30;;;10.27;;
4603;SDS011;2314;48.272;11.562;2022-12-07T02:31:03;137.27;;;10.30;;
4603;SDS011;2314;48.272;11.562;2022-12-07T02:33:36;130.70;;;9.90;;
4603;SDS011;2314;48.272;11.562;2022-12-07T02:36:08;133.77;;;10.67;;
4603;SDS011;2314;48.272;11.562;2022-12-07T02:38:48;132.57;;;10.53;;
4603;SDS011;2314;48.272;11.562;2022-12-07T02:41:23;132.97;;;10.63;;
4603;SDS011;2314;48.272;11.562;2022-12-07T02:43:55;133.97;;;11.73;;
4603;SDS011;2314;48.272;11.562;2022-12-07T02:46:28;133.77;;;11.23;;
4603;SDS011;2314;48.272;11.562;2022-12-07T02:48:58;134.43;;;10.83;;
4603;SDS011;2314;48.272;11.562;2022-12-07T02:51:29;135.37;;;12.07;;
4603;SDS011;2314;48.272;11.562;2022-12-07T02:53:57;134.20;;;11.50;;
4603;SDS011;2314;48.272;11.562;2022-12-07T02:56:26;132.53;;;11.03;;
4603;SDS011;2314;48.272;11.562;2022-12-07T02:59:02;135.30;;;12.10;;
4603;SDS011;2314;48.272;11.562;2022-12-07T03:01:44;147.70;;;12.93;;
4603;SDS011;2314;48.272;11.562;2022-12-07T03:04:20;136.07;;;12.27;;
4603;SDS011;2314;48.272;11.562;2022-12-07T03:07:02;139.97;;;11.93;;
4603;SDS011;2314;48.272;11.562;2022-12-07T03:09:36;131.87;;;10.80;;
4603;SDS011;2314;48.272;11.562;2022-12-07T03:12:12;141.53;;;12.80;;
4603;SDS011;2314;48.272;11.562;2022-12-07T03:14:45;133.60;;;11.23;;
4603;SDS011;2314;48.272;11.562;2022-12-07T03:17:21;131.70;;;11.30;;
4603;SDS011;2314;48.272;11.562;2022-12-07T03:19:51;137.97;;;12.30;;
4603;SDS011;2314;48.272;11.562;2022-12-07T03:22:24;134.40;;;11.70;;
4603;SDS011;2314;48.272;11.562;2022-12-07T03:24:57;135.50;;;12.03;;
4603;SDS011;2314;48.272;11.562;2022-12-07T03:27:28;133.60;;;11.80;;
4603;SDS011;2314;48.272;11.562;2022-12-07T03:30:02;134.67;;;11.80;;
4603;SDS011;2314;48.272;11.562;2022-12-07T03:32:34;135.27;;;11.50;;
4603;SDS011;2314;48.272;11.562;2022-12-07T03:35:05;133.30;;;11.30;;
4603;SDS011;2314;48.272;11.562;2022-12-07T03:37:38;137.53;;;13.23;;
4603;SDS011;2314;48.272;11.562;2022-12-07T03:40:13;137.03;;;11.50;;
4603;SDS011;2314;48.272;11.562;2022-12-07T03:42:45;135.57;;;11.63;;
4603;SDS011;2314;48.272;11.562;2022-12-07T03:45:13;136.00;;;12.53;;
4603;SDS011;2314;48.272;11.562;2022-12-07T03:47:46;136.43;;;11.23;;
4603;SDS011;2314;48.272;11.562;2022-12-07T03:50:21;132.97;;;10.87;;
4603;SDS011;2314;48.272;11.562;2022-12-07T03:52:55;136.80;;;10.67;;
4603;SDS011;2314;48.272;11.562;2022-12-07T03:55:29;132.37;;;10.20;;
4603;SDS011;2314;48.272;11.562;2022-12-07T03:58:01;133.30;;;10.13;;
4603;SDS011;2314;48.272;11.562;2022-12-07T04:00:32;134.77;;;11.70;;
4603;SDS011;2314;48.272;11.562;2022-12-07T04:03:01;131.00;;;10.40;;
4603;SDS011;2314;48.272;11.562;2022-12-07T04:05:28;132.67;;;10.90;;
4603;SDS011;2314;48.272;11.562;2022-12-07T04:07:55;133.97;;;12.13;;
4603;SDS011;2314;48.272;11.562;2022-12-07T04:10:22;133.00;;;10.83;;
4603;SDS011;2314;48.272;11.562;2022-12-07T04:12:49;137.67;;;13.03;;
4603;SDS011;2314;48.272;11.562;2022-12-07T04:15:16;133.37;;;11.30;;
4603;SDS011;2314;48.272;11.562;2022-12-07T04:17:43;135.57;;;11.90;;
4603;SDS011;2314;48.272;11.562;2022-12-07T04:20:12;135.67;;;10.97;;
4603;SDS011;2314;48.272;11.562;2022-12-07T04:22:41;132.23;;;11.80;;
4603;SDS011;2314;48.272;11.562;2022-12-07T04:25:08;132.17;;;11.50;;
4603;SDS011;2314;48.272;11.562;2022-12-07T04:27:35;134.73;;;11.93;;
4603;SDS011;2314;48.272;11.562;2022-12-07T04:30:03;134.57;;;11.37;;
4603;SDS011;2314;48.272;11.562;2022-12-07T04:32:31;137.30;;;11.97;;
4603;SDS011;2314;48.272;11.562;2022-12-07T04:34:58;140.13;;;13.00;;
4603;SDS011;2314;48.272;11.562;2022-12-07T04:37:27;134.40;;;11.80;;
4603;SDS011;2314;48.272;11.562;2022-12-07T04:39:54;134.60;;;11.63;;
4603;SDS011;2314;48.272;11.562;2022-12-07T04:42:21;134.90;;;11.67;;
4603;SDS011;2314;48.272;11.562;2022-12-07T04:44:48;136.50;;;11.60;;
4603;SDS011;2314;48.272;11.562;2022-12-07T04:47:16;135.07;;;12.13;;
4603;SDS011;2314;48.272;11.562;2022-12-07T04:49:43;139.40;;;13.00;;
4603;SDS011;2314;48.272;11.562;2022-12-07T04:52:10;140.23;;;12.50;;
4603;SDS011;2314;48.272;11.562;2022-12-07T04:54:38;135.87;;;12.13;;
4603;SDS011;2314;48.272;11.562;2022-12-07T04:57:06;136.40;;;12.63;;
4603;SDS011;2314;48.272;11.562;2022-12-07T04:59:33;137.17;;;13.00;;
4603;SDS011;2314;48.272;11.562;2022-12-07T05:02:00;136.23;;;11.70;;
4603;SDS011;2314;48.272;11.562;2022-12-07T05:04:27;136.90;;;12.43;;
4603;SDS011;2314;48.272;11.562;2022-12-07T05:06:54;135.20;;;11.63;;
4603;SDS011;2314;48.272;11.562;2022-12-07T05:09:21;137.37;;;13.07;;
4603;SDS011;2314;48.272;11.562;2022-12-07T05:11:50;138.77;;;12.90;;
4603;SDS011;2314;48.272;11.562;2022-12-07T05:14:18;136.40;;;12.13;;
4603;SDS011;2314;48.272;11.562;2022-12-07T05:16:47;137.27;;;12.37;;
4603;SDS011;2314;48.272;11.562;2022-12-07T05:19:16;137.17;;;11.77;;
4603;SDS011;2314;48.272;11.562;2022-12-07T05:21:45;137.07;;;12.57;;
4603;SDS011;2314;48.272;11.562;2022-12-07T05:24:13;136.43;;;12.60;;
4603;SDS011;2314;48.272;11.562;2022-12-07T05:26:42;137.80;;;12.23;;
4603;SDS011;2314;48.272;11.562;2022-12-07T05:29:12;136.27;;;13.63;;
4603;SDS011;2314;48.272;11.562;2022-12-07T05:31:40;137.77;;;12.57;;
4603;SDS011;2314;48.272;11.562;2022-12-07T05:34:07;139.60;;;14.10;;
4603;SDS011;2314;48.272;11.562;2022-12-07T05:36:34;136.80;;;12.70;;
4603;SDS011;2314;48.272;11.562;2022-12-07T05:39:02;139.33;;;12.60;;
4603;SDS011;2314;48.272;11.562;2022-12-07T05:41:29;135.73;;;12.50;;
4603;SDS011;2314;48.272;11.562;2022-12-07T05:44:15;136.63;;;12.07;;
4603;SDS011;2314;48.272;11.562;2022-12-07T05:46:42;134.90;;;12.50;;
4603;SDS011;2314;48.272;11.562;2022-12-07T05:49:09;132.47;;;11.40;;
4603;SDS011;2314;48.272;11.562;2022-12-07T05:51:36;135.97;;;11.97;;
4603;SDS011;2314;48.272;11.562;2022-12-07T05:54:03;136.27;;;11.53;;
4603;SDS011;2314;48.272;11.562;2022-12-07T05:56:30;134.03;;;11.63;;
4603;SDS011;2314;48.272;11.562;2022-12-07T05:58:57;134.90;;;11.93;;
4603;SDS011;2314;48.272;11.562;2022-12-07T06:01:43;142.37;;;13.30;;
4603;SDS011;2314;48.272;11.562;2022-12-07T06:04:10;133.97;;;12.27;;
4603;SDS011;2314;48.272;11.562;2022-12-07T06:06:37;135.70;;;12.20;;
4603;SDS011;2314;48.272;11.562;2022-12-07T06:09:04;136.57;;;12.23;;
4603;SDS011;2314;48.272;11.562;2022-12-07T06:11:31;137.73;;;12.77;;
4603;SDS011;2314;48.272;11.562;2022-12-07T06:14:16;134.87;;;11.93;;
4603;SDS011;2314;48.272;11.562;2022-12-07T06:16:45;134.77;;;11.93;;
4603;SDS011;2314;48.272;11.562;2022-12-07T06:19:12;137.33;;;12.00;;
4603;SDS011;2314;48.272;11.562;2022-12-07T06:21:39;137.70;;;13.50;;
4603;SDS011;2314;48.272;11.562;2022-12-07T06:24:06;139.47;;;12.83;;
4603;SDS011;2314;48.272;11.562;2022-12-07T06:26:35;137.00;;;12.80;;
4603;SDS011;2314;48.272;11.562;2022-12-07T06:29:02;135.60;;;12.47;;
4603;SDS011;2314;48.272;11.562;2022-12-07T06:31:29;135.13;;;12.63;;
4603;SDS011;2314;48.272;11.562;2022-12-07T06:33:58;136.03;;;12.43;;
4603;SDS011;2314;48.272;11.562;2022-12-07T06:36:26;133.60;;;11.90;;
4603;SDS011;2314;48.272;11.562;2022-12-07T06:38:54;137.67;;;12.23;;
4603;SDS011;2314;48.272;11.562;2022-12-07T06:41:21;137.57;;;11.60;;
4603;SDS011;2314;48.272;11.562;2022-12-07T06:43:48;133.70;;;10.80;;
4603;SDS011;2314;48.272;11.562;2022-12-07T06:46:16;135.10;;;11.23;;
4603;SDS011;2314;48.272;11.562;2022-12-07T06:48:43;137.87;;;11.10;;
4603;SDS011;2314;48.272;11.562;2022-12-07T06:51:12;135.40;;;12.10;;
4603;SDS011;2314;48.272;11.562;2022-12-07T06:53:39;136.50;;;13.10;;
4603;SDS011;2314;48.272;11.562;2022-12-07T06:56:06;137.17;;;12.83;;
4603;SDS011;2314;48.272;11.562;2022-12-07T06:58:33;137.67;;;12.37;;
4603;SDS011;2314;48.272;11.562;2022-12-07T07:01:00;135.70;;;11.07;;
4603;SDS011;2314;48.272;11.562;2022-12-07T07:03:28;138.37;;;13.20;;
4603;SDS011;2314;48.272;11.562;2022-12-07T07:05:55;138.07;;;12.80;;
4603;SDS011;2314;48.272;11.562;2022-12-07T07:08:23;137.27;;;12.43;;
4603;SDS011;2314;48.272;11.562;2022-12-07T07:10:50;136.30;;;12.90;;
4603;SDS011;2314;48.272;11.562;2022-12-07T07:13:17;136.67;;;12.90;;
4603;SDS011;2314;48.272;11.562;2022-12-07T07:15:44;134.70;;;11.60;;
4603;SDS011;2314;48.272;11.562;2022-12-07T07:18:11;137.23;;;11.40;;
4603;SDS011;2314;48.272;11.562;2022-12-07T07:20:38;135.90;;;12.70;;
4603;SDS011;2314;48.272;11.562;2022-12-07T07:23:05;134.87;;;11.93;;
4603;SDS011;2314;48.272;11.562;2022-12-07T07:25:34;139.57;;;12.13;;
4603;SDS011;2314;48.272;11.562;2022-12-07T07:28:01;139.00;;;13.07;;
4603;SDS011;2314;48.272;11.562;2022-12-07T07:30:29;137.37;;;12.93;;
4603;SDS011;2314;48.272;11.562;2022-12-07T07:32:56;135.50;;;11.60;;
4603;SDS011;2314;48.272;11.562;2022-12-07T07:35:24;138.00;;;12.67;;
4603;SDS011;2314;48.272;11.562;2022-12-07T07:37:51;138.47;;;12.80;;
4603;SDS011;2314;48.272;11.562;2022-12-07T07:40:18;140.97;;;14.03;;
4603;SDS011;2314;48.272;11.562;2022-12-07T07:42:47;136.77;;;13.03;;
4603;SDS011;2314;48.272;11.562;2022-12-07T07:45:15;138.90;;;13.53;;
4603;SDS011;2314;48.272;11.562;2022-12-07T07:47:42;139.87;;;13.70;;
4603;SDS011;2314;48.272;11.562;2022-12-07T07:50:10;140.60;;;13.70;;
4603;SDS011;2314;48.272;11.562;2022-12-07T07:52:37;138.47;;;14.67;;
4603;SDS011;2314;48.272;11.562;2022-12-07T07:55:05;141.57;;;14.50;;
4603;SDS011;2314;48.272;11.562;2022-12-07T07:57:33;143.20;;;14.43;;
4603;SDS011;2314;48.272;11.562;2022-12-07T08:00:03;140.87;;;14.27;;
4603;SDS011;2314;48.272;11.562;2022-12-07T08:02:33;139.97;;;14.40;;
4603;SDS011;2314;48.272;11.562;2022-12-07T08:05:00;136.73;;;12.80;;
4603;SDS011;2314;48.272;11.562;2022-12-07T08:07:28;139.03;;;13.40;;
4603;SDS011;2314;48.272;11.562;2022-12-07T08:09:55;144.10;;;14.63;;
4603;SDS011;2314;48.272;11.562;2022-12-07T08:12:22;137.40;;;13.33;;
4603;SDS011;2314;48.272;11.562;2022-12-07T08:14:49;137.57;;;14.20;;
4603;SDS011;2314;48.272;11.562;2022-12-07T08:17:18;140.30;;;14.53;;
4603;SDS011;2314;48.272;11.562;2022-12-07T08:19:45;139.37;;;14.67;;
4603;SDS011;2314;48.272;11.562;2022-12-07T08:22:12;148.67;;;15.90;;
4603;SDS011;2314;48.272;11.562;2022-12-07T08:24:39;139.37;;;14.70;;
4603;SDS011;2314;48.272;11.562;2022-12-07T08:27:06;140.93;;;14.37;;
4603;SDS011;2314;48.272;11.562;2022-12-07T08:29:33;140.70;;;15.13;;
4603;SDS011;2314;48.272;11.562;2022-12-07T08:32:00;138.90;;;14.37;;
4603;SDS011;2314;48.272;11.562;2022-12-07T08:34:28;136.50;;;14.00;;
4603;SDS011;2314;48.272;11.562;2022-12-07T08:36:55;139.40;;;13.47;;
4603;SDS011;2314;48.272;11.562;2022-12-07T08:39:22;139.07;;;14.57;;
4603;SDS011;2314;48.272;11.562;2022-12-07T08:41:50;137.93;;;14.10;;
4603;SDS011;2314;48.272;11.562;2022-12-07T08:44:17;143.20;;;15.60;;
4603;SDS011;2314;48.272;11.562;2022-12-07T08:46:44;138.77;;;14.43;;
4603;SDS011;2314;48.272;11.562;2022-12-07T08:49:15;140.50;;;14.60;;
4603;SDS011;2314;48.272;11.562;2022-12-07T08:51:47;138.47;;;14.60;;
4603;SDS011;2314;48.272;11.562;2022-12-07T08:54:15;135.97;;;13.77;;
4603;SDS011;2314;48.272;11.562;2022-12-07T08:56:45;138.53;;;14.23;;
4603;SDS011;2314;48.272;11.562;2022-12-07T08:59:14;137.87;;;14.10;;
4603;SDS011;2314;48.272;11.562;2022-12-07T09:01:42;136.27;;;14.27;;
4603;SDS011;2314;48.272;11.562;2022-12-07T09:04:09;137.00;;;14.27;;
4603;SDS011;2314;48.272;11.562;2022-12-07T09:06:37;137.47;;;14.10;;
4603;SDS011;2314;48.272;11.562;2022-12-07T09:09:06;135.70;;;13.80;;
4603;SDS011;2314;48.272;11.562;2022-12-07T09:11:33;135.60;;;13.87;;
4603;SDS011;2314;48.272;11.562;2022-12-07T09:14:00;136.50;;;12.87;;
4603;SDS011;2314;48.272;11.562;2022-12-07T09:16:27;135.97;;;14.20;;
4603;SDS011;2314;48.272;11.562;2022-12-07T09:18:54;133.10;;;13.07;;
4603;SDS011;2314;48.272;11.562;2022-12-07T09:21:22;134.43;;;12.83;;
4603;SDS011;2314;48.272;11.562;2022-12-07T09:23:49;137.10;;;13.90;;
4603;SDS011;2314;48.272;11.562;2022-12-07T09:26:17;135.17;;;12.83;;
4603;SDS011;2314;48.272;11.562;2022-12-07T09:28:44;140.13;;;13.30;;
4603;SDS011;2314;48.272;11.562;2022-12-07T09:31:11;135.40;;;13.50;;
4603;SDS011;2314;48.272;11.562;2022-12-07T09:33:38;134.03;;;13.60;;
4603;SDS011;2314;48.272;11.562;2022-12-07T09:36:06;133.80;;;13.23;;
4603;SDS011;2314;48.272;11.562;2022-12-07T09:38:53;135.03;;;11.60;;
4603;SDS011;2314;48.272;11.562;2022-12-07T09:41:23;132.07;;;12.20;;
4603;SDS011;2314;48.272;11.562;2022-12-07T09:43:52;135.17;;;13.57;;
4603;SDS011;2314;48.272;11.562;2022-12-07T09:46:30;133.73;;;14.10;;
4603;SDS011;2314;48.272;11.562;2022-12-07T09:49:02;131.77;;;12.67;;
4603;SDS011;2314;48.272;11.562;2022-12-07T09:51:30;134.33;;;12.20;;
4603;SDS011;2314;48.272;11.562;2022-12-07T09:53:58;133.00;;;12.20;;
4603;SDS011;2314;48.272;11.562;2022-12-07T09:56:29;131.90;;;12.00;;
4603;SDS011;2314;48.272;11.562;2022-12-07T09:58:58;133.93;;;13.00;;
4603;SDS011;2314;48.272;11.562;2022-12-07T10:01:28;130.23;;;11.83;;
4603;SDS011;2314;48.272;11.562;2022-12-07T10:03:59;133.70;;;12.90;;
4603;SDS011;2314;48.272;11.562;2022-12-07T10:06:35;132.73;;;12.80;;
4603;SDS011;2314;48.272;11.562;2022-12-07T10:09:08;131.33;;;13.10;;
4603;SDS011;2314;48.272;11.562;2022-12-07T10:14:27;139.50;;;13.10;;
4603;SDS011;2314;48.272;11.562;2022-12-07T10:16:56;136.00;;;13.37;;
4603;SDS011;2314;48.272;11.562;2022-12-07T10:19:24;136.00;;;13.30;;
4603;SDS011;2314;48.272;11.562;2022-12-07T10:22:00;130.67;;;11.97;;
4603;SDS011;2314;48.272;11.562;2022-12-07T10:24:31;133.77;;;12.47;;
4603;SDS011;2314;48.272;11.562;2022-12-07T10:26:59;132.37;;;12.43;;
4603;SDS011;2314;48.272;11.562;2022-12-07T10:29:28;134.87;;;13.63;;
4603;SDS011;2314;48.272;11.562;2022-12-07T10:31:59;130.50;;;11.87;;
4603;SDS011;2314;48.272;11.562;2022-12-07T10:34:29;132.17;;;12.47;;
4603;SDS011;2314;48.272;11.562;2022-12-07T10:37:13;135.50;;;12.40;;
4603;SDS011;2314;48.272;11.562;2022-12-07T10:39:44;138.70;;;12.80;;
4603;SDS011;2314;48.272;11.562;2022-12-07T10:42:17;135.93;;;12.50;;
4603;SDS011;2314;48.272;11.562;2022-12-07T10:44:46;130.77;;;12.00;;
4603;SDS011;2314;48.272;11.562;2022-12-07T10:47:18;130.20;;;11.10;;
4603;SDS011;2314;48.272;11.562;2022-12-07T10:50:02;132.37;;;12.00;;
4603;SDS011;2314;48.272;11.562;2022-12-07T10:52:46;132.80;;;11.43;;
4603;SDS011;2314;48.272;11.562;2022-12-07T10:55:33;129.90;;;11.07;;
4603;SDS011;2314;48.272;11.562;2022-12-07T10:58:20;133.90;;;10.70;;
4603;SDS011;2314;48.272;11.562;2022-12-07T11:01:02;130.57;;;10.43;;
4603;SDS011;2314;48.272;11.562;2022-12-07T11:03:42;132.30;;;10.67;;
4603;SDS011;2314;48.272;11.562;2022-12-07T11:06:30;141.63;;;10.33;;
4603;SDS011;2314;48.272;11.562;2022-12-07T11:09:20;129.37;;;9.43;;
4603;SDS011;2314;48.272;11.562;2022-12-07T11:12:20;130.20;;;10.03;;
4603;SDS011;2314;48.272;11.562;2022-12-07T11:15:01;127.40;;;9.17;;
4603;SDS011;2314;48.272;11.562;2022-12-07T11:17:40;127.90;;;8.87;;
4603;SDS011;2314;48.272;11.562;2022-12-07T11:20:27;126.90;;;8.77;;
4603;SDS011;2314;48.272;11.562;2022-12-07T11:23:04;128.40;;;9.00;;
4603;SDS011;2314;48.272;11.562;2022-12-07T11:25:46;126.20;;;8.33;;
4603;SDS011;2314;48.272;11.562;2022-12-07T11:28:24;125.47;;;8.93;;
4603;SDS011;2314;48.272;11.562;2022-12-07T11:31:11;125.70;;;9.47;;
4603;SDS011;2314;48.272;11.562;2022-12-07T11:33:46;128.90;;;9.40;;
4603;SDS011;2314;48.272;11.562;2022-12-07T11:36:32;126.40;;;8.30;;
4603;SDS011;2314;48.272;11.562;2022-12-07T11:39:11;124.50;;;8.33;;
4603;SDS011;2314;48.272;11.562;2022-12-07T11:41:50;127.57;;;9.23;;
4603;SDS011;2314;48.272;11.562;2022-12-07T11:44:25;127.50;;;8.27;;
4603;SDS011;2314;48.272;11.562;2022-12-07T11:47:01;127.50;;;9.00;;
4603;SDS011;2314;48.272;11.562;2022-12-07T11:49:37;127.67;;;9.97;;
4603;SDS011;2314;48.272;11.562;2022-12-07T11:52:13;128.33;;;9.50;;
4603;SDS011;2314;48.272;11.562;2022-12-07T11:54:48;128.10;;;9.90;;
4603;SDS011;2314;48.272;11.562;2022-12-07T11:57:20;129.37;;;10.20;;
4603;SDS011;2314;48.272;11.562;2022-12-07T11:59:57;128.37;;;9.27;;
4603;SDS011;2314;48.272;11.562;2022-12-07T12:02:33;124.80;;;8.90;;
4603;SDS011;2314;48.272;11.562;2022-12-07T12:05:12;126.27;;;9.00;;
4603;SDS011;2314;48.272;11.562;2022-12-07T12:07:44;127.10;;;8.33;;
4603;SDS011;2314;48.272;11.562;2022-12-07T12:10:17;128.17;;;9.30;;
4603;SDS011;2314;48.272;11.562;2022-12-07T12:12:55;130.27;;;9.83;;
4603;SDS011;2314;48.272;11.562;2022-12-07T12:15:43;129.57;;;10.23;;
4603;SDS011;2314;48.272;11.562;2022-12-07T12:18:33;128.73;;;8.70;;
4603;SDS011;2314;48.272;11.562;2022-12-07T12:21:15;124.87;;;8.97;;
4603;SDS011;2314;48.272;11.562;2022-12-07T12:23:44;125.97;;;8.50;;
4603;SDS011;2314;48.272;11.562;2022-12-07T12:26:17;128.27;;;8.00;;
4603;SDS011;2314;48.272;11.562;2022-12-07T12:28:50;127.07;;;8.77;;
4603;SDS011;2314;48.272;11.562;2022-12-07T12:31:31;127.03;;;9.20;;
4603;SDS011;2314;48.272;11.562;2022-12-07T12:34:04;127.60;;;9.73;;
4603;SDS011;2314;48.272;11.562;2022-12-07T12:36:59;125.03;;;8.23;;
4603;SDS011;2314;48.272;11.562;2022-12-07T12:39:26;129.23;;;9.37;;
4603;SDS011;2314;48.272;11.562;2022-12-07T12:41:57;126.43;;;8.80;;
4603;SDS011;2314;48.272;11.562;2022-12-07T12:47:52;128.03;;;9.00;;
4603;SDS011;2314;48.272;11.562;2022-12-07T12:50:26;129.27;;;9.80;;
4603;SDS011;2314;48.272;11.562;2022-12-07T12:53:12;128.23;;;9.43;;
4603;SDS011;2314;48.272;11.562;2022-12-07T13:01:55;128.00;;;9.50;;
4603;SDS011;2314;48.272;11.562;2022-12-07T13:07:49;127.80;;;9.90;;
4603;SDS011;2314;48.272;11.562;2022-12-07T13:10:25;130.30;;;10.13;;
4603;SDS011;2314;48.272;11.562;2022-12-07T13:28:14;127.93;;;9.87;;
4603;SDS011;2314;48.272;11.562;2022-12-07T13:30:49;127.77;;;9.30;;
4603;SDS011;2314;48.272;11.562;2022-12-07T13:33:27;128.80;;;9.03;;
4603;SDS011;2314;48.272;11.562;2022-12-07T13:35:55;128.00;;;8.83;;
4603;SDS011;2314;48.272;11.562;2022-12-07T13:38:27;126.53;;;8.70;;
4603;SDS011;2314;48.272;11.562;2022-12-07T13:41:04;126.70;;;8.40;;
4603;SDS011;2314;48.272;11.562;2022-12-07T13:43:43;127.10;;;8.70;;
4603;SDS011;2314;48.272;11.562;2022-12-07T13:46:12;127.30;;;8.90;;
4603;SDS011;2314;48.272;11.562;2022-12-07T13:48:44;126.37;;;8.87;;
4603;SDS011;2314;48.272;11.562;2022-12-07T13:51:16;126.03;;;9.30;;
4603;SDS011;2314;48.272;11.562;2022-12-07T13:53:48;128.90;;;9.33;;
4603;SDS011;2314;48.272;11.562;2022-12-07T13:56:20;129.30;;;9.50;;
4603;SDS011;2314;48.272;11.562;2022-12-07T13:58:50;124.87;;;8.27;;
4603;SDS011;2314;48.272;11.562;2022-12-07T14:01:17;124.20;;;8.23;;
4603;SDS011;2314;48.272;11.562;2022-12-07T14:03:44;129.27;;;10.60;;
4603;SDS011;2314;48.272;11.562;2022-12-07T14:06:16;128.83;;;9.53;;
4603;SDS011;2314;48.272;11.562;2022-12-07T14:09:06;128.20;;;8.93;;
4603;SDS011;2314;48.272;11.562;2022-12-07T14:11:35;128.80;;;9.50;;
4603;SDS011;2314;48.272;11.562;2022-12-07T14:14:04;130.23;;;9.20;;
4603;SDS011;2314;48.272;11.562;2022-12-07T14:16:32;127.20;;;9.33;;
4603;SDS011;2314;48.272;11.562;2022-12-07T14:19:02;128.17;;;8.93;;
4603;SDS011;2314;48.272;11.562;2022-12-07T14:21:32;129.60;;;10.73;;
4603;SDS011;2314;48.272;11.562;2022-12-07T14:24:14;128.80;;;9.90;;
4603;SDS011;2314;48.272;11.562;2022-12-07T14:26:44;126.40;;;8.10;;
4603;SDS011;2314;48.272;11.562;2022-12-07T14:29:19;129.20;;;9.50;;
4603;SDS011;2314;48.272;11.562;2022-12-07T14:31:48;136.23;;;9.07;;
4603;SDS011;2314;48.272;11.562;2022-12-07T14:34:15;127.57;;;8.97;;
4603;SDS011;2314;48.272;11.562;2022-12-07T14:36:42;126.27;;;8.80;;
4603;SDS011;2314;48.272;11.562;2022-12-07T14:39:09;140.33;;;8.53;;
4603;SDS011;2314;48.272;11.562;2022-12-07T14:41:38;130.10;;;8.70;;
4603;SDS011;2314;48.272;11.562;2022-12-07T14:44:17;127.70;;;8.47;;
4603;SDS011;2314;48.272;11.562;2022-12-07T14:46:45;125.20;;;7.80;;
4603;SDS011;2314;48.272;11.562;2022-12-07T14:49:13;129.77;;;10.10;;
4603;SDS011;2314;48.272;11.562;2022-12-07T14:51:41;127.10;;;8.43;;
4603;SDS011;2314;48.272;11.562;2022-12-07T14:54:13;126.60;;;9.50;;
4603;SDS011;2314;48.272;11.562;2022-12-07T14:56:44;125.07;;;8.50;;
4603;SDS011;2314;48.272;11.562;2022-12-07T14:59:14;128.60;;;9.13;;
4603;SDS011;2314;48.272;11.562;2022-12-07T15:01:43;127.13;;;8.77;;
4603;SDS011;2314;48.272;11.562;2022-12-07T15:04:11;134.07;;;9.67;;
4603;SDS011;2314;48.272;11.562;2022-12-07T15:06:39;128.47;;;9.73;;
4603;SDS011;2314;48.272;11.562;2022-12-07T15:09:08;126.33;;;8.57;;
4603;SDS011;2314;48.272;11.562;2022-12-07T15:11:39;138.80;;;10.67;;
4603;SDS011;2314;48.272;11.562;2022-12-07T15:14:06;129.17;;;9.43;;
4603;SDS011;2314;48.272;11.562;2022-12-07T15:16:34;130.00;;;10.13;;
4603;SDS011;2314;48.272;11.562;2022-12-07T15:19:04;127.83;;;9.40;;
4603;SDS011;2314;48.272;11.562;2022-12-07T15:21:32;132.60;;;9.63;;
4603;SDS011;2314;48.272;11.562;2022-12-07T15:23:59;127.70;;;9.60;;